Time;durP1;ratioP1;P1;durP2;ratioP2;P2;SDS_P1;SDS_P2;PMS_P1;PMS_P2;Temp;Humidity;BMP_temperature;BMP_pressure;BME280_temperature;BME280_humidity;BME280_pressure;Samples;Min_cycle;Max_cycle;Signal;HPM_P1;HPM_P2
2022/07/06 00:01:51;;;;;;;2.33;1.80;;;;;;;;;;4981257;28;20072;-85
2022/07/06 00:04:20;;;;;;;3.92;1.83;;;;;;;;;;4997046;28;20061;-86
2022/07/06 00:06:46;;;;;;;2.83;1.80;;;;;;;;;;4998321;28;20069;-85
2022/07/06 00:09:12;;;;;;;2.72;1.83;;;;;;;;;;4997044;28;20408;-85
2022/07/06 00:11:38;;;;;;;2.97;1.83;;;;;;;;;;4980478;28;20536;-85
2022/07/06 00:14:04;;;;;;;2.17;1.55;;;;;;;;;;4997603;28;20045;-85
2022/07/06 00:16:30;;;;;;;5.95;1.80;;;;;;;;;;4981055;28;20046;-85
2022/07/06 00:18:56;;;;;;;2.60;1.63;;;;;;;;;;4997888;28;20042;-84
2022/07/06 00:21:21;;;;;;;3.55;1.70;;;;;;;;;;4980624;28;20034;-85
2022/07/06 00:23:47;;;;;;;3.75;1.80;;;;;;;;;;4980820;28;20121;-86
2022/07/06 00:26:13;;;;;;;4.40;1.90;;;;;;;;;;4996686;28;20557;-85
2022/07/06 00:28:38;;;;;;;3.35;1.83;;;;;;;;;;4980913;28;20038;-85
2022/07/06 00:31:05;;;;;;;1.73;1.60;;;;;;;;;;4981071;28;20050;-85
2022/07/06 00:33:31;;;;;;;2.60;1.88;;;;;;;;;;4997246;28;20045;-85
2022/07/06 00:35:57;;;;;;;3.80;2.00;;;;;;;;;;4995978;28;20038;-85
2022/07/06 00:38:22;;;;;;;2.38;1.90;;;;;;;;;;4981211;28;20030;-85
2022/07/06 00:40:48;;;;;;;4.00;1.80;;;;;;;;;;4996838;28;20476;-85
2022/07/06 00:43:14;;;;;;;3.28;1.90;;;;;;;;;;4981305;28;20483;-86
2022/07/06 00:45:40;;;;;;;4.70;1.80;;;;;;;;;;4980894;28;20487;-86
2022/07/06 00:48:06;;;;;;;3.67;2.05;;;;;;;;;;4980645;28;20121;-85
2022/07/06 00:50:33;;;;;;;3.00;2.00;;;;;;;;;;4981356;28;20035;-85
2022/07/06 00:53:01;;;;;;;4.05;2.20;;;;;;;;;;4981072;28;20040;-85
2022/07/06 00:55:29;;;;;;;4.78;2.22;;;;;;;;;;4983854;28;20034;-85
2022/07/06 00:57:55;;;;;;;3.22;1.90;;;;;;;;;;4983701;28;20549;-85
2022/07/06 01:00:23;;;;;;;4.38;2.08;;;;;;;;;;4984445;28;20117;-86
2022/07/06 01:02:49;;;;;;;2.75;1.80;;;;;;;;;;5000476;28;20474;-85
2022/07/06 01:05:15;;;;;;;3.08;2.20;;;;;;;;;;5000118;28;20163;-85
2022/07/06 01:07:43;;;;;;;2.65;1.90;;;;;;;;;;5000068;28;20038;-85
2022/07/06 01:10:11;;;;;;;4.70;2.10;;;;;;;;;;4983545;28;20049;-85
2022/07/06 01:12:39;;;;;;;3.42;2.08;;;;;;;;;;4999121;28;20034;-85
2022/07/06 01:15:08;;;;;;;3.33;1.92;;;;;;;;;;4999996;28;20038;-86
2022/07/06 01:17:34;;;;;;;3.92;2.10;;;;;;;;;;4983825;28;20403;-85
2022/07/06 01:20:18;;;;;;;5.93;2.00;;;;;;;;;;4999645;28;20523;-85
2022/07/06 01:22:46;;;;;;;7.30;2.17;;;;;;;;;;4983247;28;20503;-84
2022/07/06 01:25:12;;;;;;;2.60;1.92;;;;;;;;;;4999810;28;20033;-85
2022/07/06 01:27:40;;;;;;;2.38;2.00;;;;;;;;;;5000267;28;20347;-85
2022/07/06 01:30:07;;;;;;;2.90;2.00;;;;;;;;;;4999578;28;20457;-85
2022/07/06 01:32:34;;;;;;;3.95;2.00;;;;;;;;;;4982766;28;20038;-86
2022/07/06 01:35:00;;;;;;;2.05;1.80;;;;;;;;;;4982641;28;20093;-85
2022/07/06 01:37:26;;;;;;;3.53;2.05;;;;;;;;;;4998899;28;20454;-85
2022/07/06 01:39:51;;;;;;;2.85;2.15;;;;;;;;;;4999780;28;20027;-85
2022/07/06 01:42:17;;;;;;;3.65;2.10;;;;;;;;;;4998865;28;20064;-85
2022/07/06 01:44:44;;;;;;;2.72;1.90;;;;;;;;;;5000253;28;20026;-85
2022/07/06 01:47:13;;;;;;;2.72;1.90;;;;;;;;;;4982426;28;20407;-86
2022/07/06 01:49:38;;;;;;;4.30;2.05;;;;;;;;;;4983256;28;20065;-85
2022/07/06 01:52:04;;;;;;;4.35;1.80;;;;;;;;;;4999544;28;20031;-85
2022/07/06 01:54:30;;;;;;;2.97;2.00;;;;;;;;;;4981901;28;20038;-85
2022/07/06 01:56:56;;;;;;;3.92;1.88;;;;;;;;;;4982710;28;20622;-85
2022/07/06 01:59:21;;;;;;;3.45;1.90;;;;;;;;;;4982943;28;20128;-86
2022/07/06 02:01:47;;;;;;;4.43;2.05;;;;;;;;;;4982711;28;20038;-86
2022/07/06 02:04:12;;;;;;;3.13;1.92;;;;;;;;;;4981810;28;20042;-86
2022/07/06 02:06:39;;;;;;;2.88;2.15;;;;;;;;;;4982754;28;20034;-85
2022/07/06 02:09:06;;;;;;;4.72;2.00;;;;;;;;;;4983405;28;20106;-85
2022/07/06 02:11:32;;;;;;;3.85;2.08;;;;;;;;;;4982247;28;20034;-84
2022/07/06 02:13:58;;;;;;;5.15;2.20;;;;;;;;;;4982281;28;20557;-85
2022/07/06 02:16:24;;;;;;;4.50;2.17;;;;;;;;;;4982267;28;20084;-85
2022/07/06 02:18:49;;;;;;;5.63;2.20;;;;;;;;;;4982775;28;20027;-86
2022/07/06 02:21:15;;;;;;;2.60;1.92;;;;;;;;;;4982474;28;20427;-85
2022/07/06 02:23:41;;;;;;;6.47;2.10;;;;;;;;;;4998339;28;20030;-84
2022/07/06 02:26:07;;;;;;;3.28;2.10;;;;;;;;;;4982177;28;20034;-85
2022/07/06 02:28:33;;;;;;;6.10;2.10;;;;;;;;;;4981990;28;20058;-84
2022/07/06 02:30:59;;;;;;;3.63;2.10;;;;;;;;;;4998187;28;20049;-85
2022/07/06 02:33:26;;;;;;;4.03;2.00;;;;;;;;;;4982622;28;20049;-85
2022/07/06 02:35:52;;;;;;;5.75;2.10;;;;;;;;;;4981680;28;20380;-85
2022/07/06 02:38:18;;;;;;;3.33;2.08;;;;;;;;;;4982122;28;20061;-85
2022/07/06 02:40:44;;;;;;;2.75;2.13;;;;;;;;;;4981806;28;20035;-85
2022/07/06 02:43:10;;;;;;;3.45;2.10;;;;;;;;;;4997979;28;20034;-85
2022/07/06 02:45:36;;;;;;;2.35;1.80;;;;;;;;;;4981851;28;20033;-85
2022/07/06 02:48:02;;;;;;;3.50;2.20;;;;;;;;;;4997340;28;20046;-85
2022/07/06 02:50:28;;;;;;;4.30;2.00;;;;;;;;;;4981768;28;20034;-85
2022/07/06 02:52:55;;;;;;;3.00;2.13;;;;;;;;;;4997750;28;20058;-85
2022/07/06 02:55:21;;;;;;;4.15;2.08;;;;;;;;;;4980891;28;20045;-85
2022/07/06 02:57:48;;;;;;;4.05;2.00;;;;;;;;;;4997518;28;20129;-85
2022/07/06 03:00:14;;;;;;;4.13;2.20;;;;;;;;;;4997744;28;20050;-86
2022/07/06 03:02:40;;;;;;;4.57;2.20;;;;;;;;;;4997215;28;20023;-85
2022/07/06 03:05:07;;;;;;;5.10;2.03;;;;;;;;;;4996918;28;20061;-85
2022/07/06 03:07:34;;;;;;;7.60;2.72;;;;;;;;;;4981299;28;20038;-85
2022/07/06 03:10:00;;;;;;;2.78;2.17;;;;;;;;;;4980937;28;20057;-85
2022/07/06 03:12:26;;;;;;;3.38;2.40;;;;;;;;;;4980838;28;20529;-85
2022/07/06 03:14:53;;;;;;;3.88;2.50;;;;;;;;;;4980889;28;20050;-86
2022/07/06 03:17:21;;;;;;;3.00;2.20;;;;;;;;;;4981284;28;20034;-85
2022/07/06 03:19:48;;;;;;;2.85;2.13;;;;;;;;;;4981206;28;20030;-85
2022/07/06 03:22:13;;;;;;;7.18;2.17;;;;;;;;;;4995957;28;20042;-84
2022/07/06 03:24:40;;;;;;;5.20;1.98;;;;;;;;;;4980413;28;20040;-85
2022/07/06 03:27:07;;;;;;;2.47;2.10;;;;;;;;;;4980841;28;20070;-85
2022/07/06 03:29:33;;;;;;;2.92;2.00;;;;;;;;;;4981014;28;20042;-85
2022/07/06 03:31:59;;;;;;;3.55;2.08;;;;;;;;;;4981005;28;20141;-85
2022/07/06 03:34:25;;;;;;;4.07;2.40;;;;;;;;;;4996707;28;20041;-86
2022/07/06 03:36:51;;;;;;;5.05;2.20;;;;;;;;;;4996620;28;20061;-85
2022/07/06 03:39:17;;;;;;;4.53;2.40;;;;;;;;;;4997020;28;20092;-85
2022/07/06 03:41:43;;;;;;;3.45;2.22;;;;;;;;;;4997644;28;20110;-86
2022/07/06 03:44:09;;;;;;;3.45;2.25;;;;;;;;;;4997049;28;20030;-85
2022/07/06 03:46:35;;;;;;;5.05;2.30;;;;;;;;;;4980650;28;20502;-86
2022/07/06 03:49:02;;;;;;;6.20;2.20;;;;;;;;;;4980505;28;20034;-85
2022/07/06 03:51:27;;;;;;;2.45;2.05;;;;;;;;;;4979971;28;20406;-85
2022/07/06 03:53:53;;;;;;;4.40;2.50;;;;;;;;;;4996462;28;20038;-85
2022/07/06 03:56:28;;;;;;;4.25;2.40;;;;;;;;;;4980651;28;20042;-84
2022/07/06 03:59:01;;;;;;;3.55;2.03;;;;;;;;;;4980841;28;20034;-85
2022/07/06 04:01:30;;;;;;;3.60;2.30;;;;;;;;;;4980117;28;20094;-85
2022/07/06 04:03:57;;;;;;;5.20;2.50;;;;;;;;;;4980063;28;20042;-83
2022/07/06 04:06:23;;;;;;;5.07;2.20;;;;;;;;;;4980025;28;20121;-86
2022/07/06 04:08:49;;;;;;;3.92;2.20;;;;;;;;;;4980156;28;20110;-85
2022/07/06 04:11:15;;;;;;;4.38;2.20;;;;;;;;;;4979955;28;20062;-85
2022/07/06 04:13:41;;;;;;;3.50;2.40;;;;;;;;;;4979580;28;20038;-85
2022/07/06 04:16:07;;;;;;;2.38;2.10;;;;;;;;;;4979877;28;20034;-85
2022/07/06 04:18:33;;;;;;;5.50;2.40;;;;;;;;;;4980024;28;20038;-85
2022/07/06 04:20:59;;;;;;;4.70;2.38;;;;;;;;;;4979437;28;20034;-86
2022/07/06 04:23:27;;;;;;;4.18;2.55;;;;;;;;;;4980130;28;20034;-85
2022/07/06 04:25:54;;;;;;;4.18;2.30;;;;;;;;;;4995650;28;20041;-85
2022/07/06 04:28:20;;;;;;;3.97;2.35;;;;;;;;;;4989943;28;20034;-84
2022/07/06 04:30:46;;;;;;;3.22;2.35;;;;;;;;;;5010705;28;20042;-85
2022/07/06 04:33:16;;;;;;;4.32;2.45;;;;;;;;;;5011090;28;20014;-84
2022/07/06 04:35:44;;;;;;;3.42;2.40;;;;;;;;;;5010585;28;20503;-84
2022/07/06 04:38:10;;;;;;;4.15;2.47;;;;;;;;;;5010574;28;20034;-85
2022/07/06 04:40:36;;;;;;;4.47;2.50;;;;;;;;;;5010541;28;20049;-84
2022/07/06 04:43:06;;;;;;;6.03;2.47;;;;;;;;;;5010770;28;20112;-84
2022/07/06 04:45:34;;;;;;;4.82;2.47;;;;;;;;;;4994736;28;20380;-84
2022/07/06 04:48:00;;;;;;;2.85;2.38;;;;;;;;;;4994457;28;20045;-84
2022/07/06 04:50:26;;;;;;;5.65;2.53;;;;;;;;;;4994434;28;20065;-84
2022/07/06 04:52:55;;;;;;;5.35;2.53;;;;;;;;;;4994959;28;20034;-84
2022/07/06 04:55:21;;;;;;;4.10;2.40;;;;;;;;;;4993442;28;20057;-84
2022/07/06 04:57:48;;;;;;;4.38;2.78;;;;;;;;;;4994072;28;20035;-84
2022/07/06 05:00:17;;;;;;;6.75;2.67;;;;;;;;;;4994334;28;20034;-83
2022/07/06 05:02:42;;;;;;;7.95;2.75;;;;;;;;;;4994901;28;20049;-84
2022/07/06 05:05:09;;;;;;;3.78;2.40;;;;;;;;;;4994629;28;20034;-84
2022/07/06 05:07:39;;;;;;;4.10;2.75;;;;;;;;;;4993961;28;20058;-84
2022/07/06 05:10:07;;;;;;;5.95;2.40;;;;;;;;;;5010382;28;20037;-85
2022/07/06 05:12:34;;;;;;;4.68;2.50;;;;;;;;;;4993158;28;20506;-85
2022/07/06 05:14:59;;;;;;;3.40;2.30;;;;;;;;;;4993499;28;20038;-83
2022/07/06 05:17:25;;;;;;;4.60;2.40;;;;;;;;;;5009545;28;20030;-85
2022/07/06 05:19:52;;;;;;;3.28;2.30;;;;;;;;;;5009286;28;20380;-85
2022/07/06 05:22:17;;;;;;;5.72;2.60;;;;;;;;;;5009419;28;20041;-85
2022/07/06 05:24:43;;;;;;;3.28;2.28;;;;;;;;;;4993828;28;20038;-85
2022/07/06 05:27:09;;;;;;;2.90;2.28;;;;;;;;;;4993298;28;20034;-85
2022/07/06 05:29:34;;;;;;;5.10;2.42;;;;;;;;;;4993361;28;20070;-85
2022/07/06 05:32:00;;;;;;;6.88;2.50;;;;;;;;;;4993115;28;20035;-84
2022/07/06 05:34:26;;;;;;;2.55;1.98;;;;;;;;;;4992603;28;20042;-84
2022/07/06 05:36:52;;;;;;;5.43;2.40;;;;;;;;;;4993142;28;20046;-84
2022/07/06 05:39:19;;;;;;;4.43;2.00;;;;;;;;;;4992589;28;20057;-85
2022/07/06 05:41:47;;;;;;;5.80;2.20;;;;;;;;;;4993307;28;20034;-84
2022/07/06 05:44:13;;;;;;;4.45;2.10;;;;;;;;;;5009389;28;20046;-84
2022/07/06 05:46:38;;;;;;;3.53;2.10;;;;;;;;;;4993397;28;20034;-84
2022/07/06 05:51:50;;;;;;;4.55;2.00;;;;;;;;;;5010128;28;20085;-84
2022/07/06 05:54:17;;;;;;;2.28;2.00;;;;;;;;;;4992735;28;20103;-84
2022/07/06 05:56:43;;;;;;;5.50;2.20;;;;;;;;;;5008563;28;20037;-84
2022/07/06 05:59:09;;;;;;;3.60;2.00;;;;;;;;;;4992988;28;20034;-85
2022/07/06 06:01:35;;;;;;;5.60;2.03;;;;;;;;;;5009846;28;20060;-85
2022/07/06 06:04:08;;;;;;;3.03;2.17;;;;;;;;;;4993325;28;20100;-84
2022/07/06 06:06:34;;;;;;;3.85;2.20;;;;;;;;;;4992840;28;20038;-85
2022/07/06 06:08:59;;;;;;;5.00;1.90;;;;;;;;;;4992564;28;20026;-84
2022/07/06 06:11:25;;;;;;;3.17;1.90;;;;;;;;;;5008892;28;20030;-85
2022/07/06 06:13:51;;;;;;;3.75;2.00;;;;;;;;;;5008754;28;20040;-85
2022/07/06 06:16:17;;;;;;;4.90;2.15;;;;;;;;;;5008092;28;20482;-84
2022/07/06 06:18:43;;;;;;;2.90;1.90;;;;;;;;;;5009091;28;20034;-85
2022/07/06 06:21:09;;;;;;;6.20;2.00;;;;;;;;;;5008772;28;20064;-84
2022/07/06 06:23:35;;;;;;;3.35;1.80;;;;;;;;;;5008464;28;20054;-84
2022/07/06 06:26:00;;;;;;;9.07;2.00;;;;;;;;;;5008849;28;20033;-85
2022/07/06 06:28:26;;;;;;;3.33;1.92;;;;;;;;;;4991862;28;20046;-85
2022/07/06 06:30:51;;;;;;;3.95;1.98;;;;;;;;;;5008374;28;20058;-85
2022/07/06 06:33:19;;;;;;;3.42;1.80;;;;;;;;;;5008652;28;20132;-84
2022/07/06 06:35:44;;;;;;;2.78;1.63;;;;;;;;;;4992100;28;20030;-83
2022/07/06 06:38:10;;;;;;;4.55;1.70;;;;;;;;;;4992014;28;20101;-84
2022/07/06 06:40:36;;;;;;;4.68;2.00;;;;;;;;;;5008144;28;20039;-84
2022/07/06 06:43:02;;;;;;;3.33;1.67;;;;;;;;;;4991946;28;20369;-84
2022/07/06 06:45:29;;;;;;;3.50;2.08;;;;;;;;;;5007393;28;20045;-84
2022/07/06 06:47:55;;;;;;;5.43;1.70;;;;;;;;;;5008918;28;20034;-84
2022/07/06 06:50:22;;;;;;;4.95;1.90;;;;;;;;;;5008087;28;20023;-84
2022/07/06 06:52:48;;;;;;;5.63;1.90;;;;;;;;;;4992032;28;20491;-85
2022/07/06 06:55:13;;;;;;;4.82;1.70;;;;;;;;;;4991671;28;20090;-84
2022/07/06 06:57:39;;;;;;;3.53;2.03;;;;;;;;;;5008598;28;20038;-84
2022/07/06 07:00:05;;;;;;;2.47;1.58;;;;;;;;;;5008453;28;20026;-84
2022/07/06 07:02:31;;;;;;;3.38;1.73;;;;;;;;;;4991253;28;20107;-85
2022/07/06 07:04:56;;;;;;;4.95;1.80;;;;;;;;;;4991312;28;20060;-85
2022/07/06 07:07:22;;;;;;;4.13;1.65;;;;;;;;;;5006991;28;20099;-85
2022/07/06 07:09:48;;;;;;;1.63;1.20;;;;;;;;;;5008243;28;20061;-85
2022/07/06 07:12:14;;;;;;;2.47;1.50;;;;;;;;;;5006939;28;20518;-85
2022/07/06 07:14:40;;;;;;;3.72;1.40;;;;;;;;;;4990544;28;20026;-84
2022/07/06 07:17:06;;;;;;;2.90;1.40;;;;;;;;;;5007146;28;20034;-85
2022/07/06 07:19:32;;;;;;;2.10;1.60;;;;;;;;;;5006823;28;20471;-85
2022/07/06 07:21:57;;;;;;;1.55;1.20;;;;;;;;;;5008193;28;20054;-85
2022/07/06 07:24:23;;;;;;;2.83;1.50;;;;;;;;;;5006219;28;20049;-85
2022/07/06 07:26:49;;;;;;;4.30;1.40;;;;;;;;;;4973024;28;20045;-85
2022/07/06 07:29:14;;;;;;;2.25;1.10;;;;;;;;;;5005944;28;20046;-84
2022/07/06 07:31:40;;;;;;;2.38;1.20;;;;;;;;;;4990066;28;20054;-85
2022/07/06 07:34:05;;;;;;;2.05;1.10;;;;;;;;;;5006334;28;20089;-84
2022/07/06 07:36:31;;;;;;;3.50;1.25;;;;;;;;;;4990115;28;20057;-84
2022/07/06 07:38:56;;;;;;;1.95;1.20;;;;;;;;;;4990147;28;20042;-85
2022/07/06 07:41:22;;;;;;;2.80;1.08;;;;;;;;;;4989756;28;20061;-84
2022/07/06 07:43:48;;;;;;;3.40;1.20;;;;;;;;;;4989847;28;20422;-85
2022/07/06 07:46:13;;;;;;;1.55;1.02;;;;;;;;;;5006463;28;20084;-85
2022/07/06 07:48:39;;;;;;;4.00;1.20;;;;;;;;;;4989697;28;20062;-85
2022/07/06 07:51:05;;;;;;;1.73;1.08;;;;;;;;;;4989918;28;20080;-85
2022/07/06 07:53:31;;;;;;;2.97;1.20;;;;;;;;;;4989815;28;20018;-85
2022/07/06 07:55:56;;;;;;;1.50;1.20;;;;;;;;;;5005761;28;20042;-85
2022/07/06 07:58:22;;;;;;;1.73;1.10;;;;;;;;;;5005514;28;20040;-85
2022/07/06 08:00:48;;;;;;;2.65;1.13;;;;;;;;;;4990108;28;20038;-85
2022/07/06 08:03:13;;;;;;;4.53;1.10;;;;;;;;;;5005449;28;20057;-85
2022/07/06 08:05:39;;;;;;;2.10;1.13;;;;;;;;;;5005040;28;20041;-85
2022/07/06 08:08:05;;;;;;;1.27;1.00;;;;;;;;;;5005895;28;20038;-85
2022/07/06 08:10:31;;;;;;;1.25;1.00;;;;;;;;;;4989827;28;20022;-85
2022/07/06 08:12:56;;;;;;;3.63;1.15;;;;;;;;;;4989248;28;20084;-85
2022/07/06 08:15:22;;;;;;;3.33;1.20;;;;;;;;;;4988707;28;20038;-85
2022/07/06 08:17:48;;;;;;;2.22;1.10;;;;;;;;;;4989042;28;20061;-86
2022/07/06 08:20:14;;;;;;;1.92;1.10;;;;;;;;;;4989295;28;20031;-85
2022/07/06 08:22:39;;;;;;;2.55;1.30;;;;;;;;;;5005814;28;20038;-85
2022/07/06 08:25:06;;;;;;;1.55;1.10;;;;;;;;;;5005289;28;20092;-86
2022/07/06 08:27:31;;;;;;;1.85;1.00;;;;;;;;;;4988899;28;20034;-86
2022/07/06 08:29:57;;;;;;;2.90;1.13;;;;;;;;;;5005087;28;20475;-86
2022/07/06 08:32:22;;;;;;;2.65;1.20;;;;;;;;;;4988170;28;20054;-85
2022/07/06 08:34:48;;;;;;;1.58;1.15;;;;;;;;;;5005363;28;20392;-86
2022/07/06 08:37:14;;;;;;;2.22;1.17;;;;;;;;;;5005451;28;20069;-86
2022/07/06 08:39:40;;;;;;;1.55;1.10;;;;;;;;;;5005827;28;20026;-86
2022/07/06 08:42:07;;;;;;;3.08;1.23;;;;;;;;;;4989344;28;20038;-86
2022/07/06 08:44:36;;;;;;;2.75;1.30;;;;;;;;;;5004662;28;20157;-85
2022/07/06 08:47:05;;;;;;;1.35;1.00;;;;;;;;;;5004734;28;20133;-85
2022/07/06 08:49:34;;;;;;;1.92;1.20;;;;;;;;;;4988564;28;20492;-86
2022/07/06 08:52:02;;;;;;;3.22;1.20;;;;;;;;;;4988994;28;20030;-85
2022/07/06 08:54:28;;;;;;;3.28;1.38;;;;;;;;;;4988068;28;20048;-86
2022/07/06 08:56:53;;;;;;;1.95;1.17;;;;;;;;;;5004976;28;20046;-86
2022/07/06 08:59:19;;;;;;;3.70;1.40;;;;;;;;;;4988132;28;20030;-85
2022/07/06 09:01:47;;;;;;;2.33;1.23;;;;;;;;;;4989000;28;20055;-86
2022/07/06 09:04:15;;;;;;;2.20;1.38;;;;;;;;;;5004901;28;20384;-85
2022/07/06 09:06:43;;;;;;;2.45;1.30;;;;;;;;;;4989038;28;20045;-85
2022/07/06 09:09:09;;;;;;;3.40;1.40;;;;;;;;;;5004775;28;20499;-85
2022/07/06 09:11:38;;;;;;;1.92;1.30;;;;;;;;;;4987926;28;20049;-86
2022/07/06 09:14:04;;;;;;;3.55;1.50;;;;;;;;;;5006657;28;20030;-86
2022/07/06 09:16:30;;;;;;;2.15;1.30;;;;;;;;;;4991933;28;20042;-86
2022/07/06 09:18:56;;;;;;;2.85;1.30;;;;;;;;;;5008081;28;20045;-84
2022/07/06 09:21:25;;;;;;;2.10;1.30;;;;;;;;;;5008539;28;20089;-86
2022/07/06 09:23:58;;;;;;;4.30;1.63;;;;;;;;;;4992688;28;20034;-85
2022/07/06 09:26:24;;;;;;;3.47;1.50;;;;;;;;;;4991972;28;20042;-86
2022/07/06 09:28:50;;;;;;;2.42;1.40;;;;;;;;;;4991825;28;20026;-86
2022/07/06 09:31:15;;;;;;;4.00;1.60;;;;;;;;;;5008228;28;20411;-85
2022/07/06 09:34:05;;;;;;;2.85;1.30;;;;;;;;;;5008199;28;20034;-86
2022/07/06 09:36:37;;;;;;;2.17;1.35;;;;;;;;;;4991719;28;20034;-85
2022/07/06 09:39:24;;;;;;;2.50;1.60;;;;;;;;;;4991701;28;20030;-85
2022/07/06 09:42:03;;;;;;;2.45;1.20;;;;;;;;;;5007814;28;20042;-86
2022/07/06 09:44:36;;;;;;;2.97;1.20;;;;;;;;;;4990674;28;20069;-86
2022/07/06 09:47:04;;;;;;;;;;;;;;;;;;5007771;28;20049;-85
2022/07/06 09:49:30;;;;;;;2.28;1.40;;;;;;;;;;5007760;28;19917;-84
2022/07/06 09:51:59;;;;;;;2.70;1.70;;;;;;;;;;4991563;28;20077;-85
2022/07/06 09:54:25;;;;;;;2.88;1.60;;;;;;;;;;5007709;28;20034;-85
2022/07/06 09:56:52;;;;;;;2.67;1.40;;;;;;;;;;5008082;28;20113;-86
2022/07/06 09:59:21;;;;;;;4.70;1.42;;;;;;;;;;4991157;28;20031;-85
2022/07/06 10:01:46;;;;;;;3.78;1.50;;;;;;;;;;5007836;28;20077;-85
2022/07/06 10:04:13;;;;;;;3.85;1.83;;;;;;;;;;5007297;28;20026;-86
2022/07/06 10:06:40;;;;;;;4.53;1.40;;;;;;;;;;4991053;28;20038;-85
2022/07/06 10:09:07;;;;;;;3.00;1.42;;;;;;;;;;5007601;28;20030;-86
2022/07/06 10:11:45;;;;;;;7.60;1.30;;;;;;;;;;5006969;28;20022;-84
2022/07/06 10:14:14;;;;;;;3.03;1.30;;;;;;;;;;4990922;28;20038;-85
2022/07/06 10:16:40;;;;;;;3.33;1.20;;;;;;;;;;4991051;28;20045;-85
2022/07/06 10:19:08;;;;;;;2.35;1.42;;;;;;;;;;5007259;28;20023;-85
2022/07/06 10:21:36;;;;;;;1.95;1.35;;;;;;;;;;4990935;28;20030;-85
2022/07/06 10:24:03;;;;;;;2.03;1.40;;;;;;;;;;5007022;28;20142;-85
2022/07/06 10:26:30;;;;;;;3.38;1.50;;;;;;;;;;4990320;28;20036;-85
2022/07/06 10:28:58;;;;;;;1.40;1.30;;;;;;;;;;4996060;28;20039;-86
2022/07/06 10:31:25;;;;;;;1.70;1.27;;;;;;;;;;4981777;28;20041;-86
2022/07/06 10:33:52;;;;;;;1.98;1.30;;;;;;;;;;4997668;28;20119;-87
2022/07/06 10:36:17;;;;;;;6.22;1.48;;;;;;;;;;4997436;28;20034;-87
2022/07/06 10:38:48;;;;;;;2.58;1.35;;;;;;;;;;4998084;28;20042;-87
2022/07/06 10:41:14;;;;;;;2.00;1.30;;;;;;;;;;4997921;28;20073;-87
2022/07/06 10:43:45;;;;;;;2.35;1.45;;;;;;;;;;4998211;28;20065;-87
2022/07/06 10:46:15;;;;;;;2.72;1.30;;;;;;;;;;4981368;28;20038;-87
2022/07/06 10:48:42;;;;;;;3.15;1.58;;;;;;;;;;4997834;28;20125;-87
2022/07/06 10:51:10;;;;;;;3.75;1.50;;;;;;;;;;4997500;28;20506;-87
2022/07/06 10:53:39;;;;;;;3.72;1.20;;;;;;;;;;4997453;28;20035;-87
2022/07/06 10:56:11;;;;;;;4.88;1.40;;;;;;;;;;4998369;28;20042;-87
2022/07/06 10:59:01;;;;;;;1.85;1.40;;;;;;;;;;4981261;28;20031;-87
2022/07/06 11:01:28;;;;;;;2.10;1.30;;;;;;;;;;4997205;28;20072;-87
2022/07/06 11:03:57;;;;;;;4.35;1.40;;;;;;;;;;4997037;28;20057;-87
2022/07/06 11:06:24;;;;;;;2.40;1.30;;;;;;;;;;4980821;28;20035;-88
2022/07/06 11:08:57;;;;;;;4.43;1.40;;;;;;;;;;4996923;28;20034;-86
2022/07/06 11:11:31;;;;;;;2.90;1.43;;;;;;;;;;4997459;28;20030;-86
2022/07/06 11:14:01;;;;;;;3.08;1.40;;;;;;;;;;4980382;28;20359;-84
2022/07/06 11:16:30;;;;;;;2.03;1.23;;;;;;;;;;4981066;28;20061;-87
2022/07/06 11:19:01;;;;;;;8.00;1.63;;;;;;;;;;4997302;28;20030;-87
2022/07/06 11:21:44;;;;;;;2.55;1.60;;;;;;;;;;4981259;28;20038;-86
2022/07/06 11:24:12;;;;;;;;;;;;;;;;;;4997786;28;20042;-87
2022/07/06 11:26:38;;;;;;;4.75;1.48;;;;;;;;;;4997601;28;19983;-87
2022/07/06 11:29:06;;;;;;;1.98;1.35;;;;;;;;;;4981416;28;20030;-87
2022/07/06 11:31:38;;;;;;;3.15;1.60;;;;;;;;;;4997348;28;20044;-87
2022/07/06 11:34:05;;;;;;;4.32;1.35;;;;;;;;;;4997065;28;20043;-87
2022/07/06 11:36:30;;;;;;;6.22;1.48;;;;;;;;;;4996591;28;20027;-87
2022/07/06 11:38:56;;;;;;;5.30;1.70;;;;;;;;;;4998003;28;20078;-88
2022/07/06 11:41:22;;;;;;;2.85;1.35;;;;;;;;;;4980280;28;20041;-87
2022/07/06 11:43:50;;;;;;;2.30;1.40;;;;;;;;;;4996707;28;20038;-87
2022/07/06 11:46:26;;;;;;;2.08;1.38;;;;;;;;;;4980653;28;20073;-87
2022/07/06 11:48:54;;;;;;;3.63;1.55;;;;;;;;;;4981227;28;20046;-88
2022/07/06 11:51:21;;;;;;;2.05;1.35;;;;;;;;;;4996048;28;20073;-87
2022/07/06 11:53:49;;;;;;;1.85;1.20;;;;;;;;;;4996449;28;20039;-86
2022/07/06 11:56:17;;;;;;;2.08;1.30;;;;;;;;;;4997882;28;20487;-87
2022/07/06 11:58:46;;;;;;;3.65;1.30;;;;;;;;;;4996455;28;20033;-87
2022/07/06 12:01:12;;;;;;;2.05;1.17;;;;;;;;;;4996433;28;20026;-87
2022/07/06 12:03:38;;;;;;;1.83;1.30;;;;;;;;;;4996109;28;20154;-86
2022/07/06 12:06:05;;;;;;;2.08;1.30;;;;;;;;;;4979847;28;20034;-88
2022/07/06 12:08:33;;;;;;;1.75;1.30;;;;;;;;;;4996983;28;20034;-87
2022/07/06 12:10:59;;;;;;;4.00;1.33;;;;;;;;;;4996222;28;20526;-86
2022/07/06 12:13:25;;;;;;;2.22;1.30;;;;;;;;;;4995783;28;20498;-87
2022/07/06 12:15:51;;;;;;;2.15;1.30;;;;;;;;;;4996000;28;20035;-87
2022/07/06 12:18:16;;;;;;;1.88;1.38;;;;;;;;;;4979955;28;20022;-87
2022/07/06 12:20:43;;;;;;;2.35;1.45;;;;;;;;;;4995892;28;20031;-87
2022/07/06 12:23:08;;;;;;;2.17;1.58;;;;;;;;;;4979728;28;20022;-87
2022/07/06 12:25:36;;;;;;;2.67;1.10;;;;;;;;;;4963854;28;20038;-87
2022/07/06 12:28:02;;;;;;;3.50;1.50;;;;;;;;;;4979323;28;20514;-86
2022/07/06 12:30:28;;;;;;;3.33;1.40;;;;;;;;;;4964867;28;20116;-87
2022/07/06 12:33:21;;;;;;;4.25;1.70;;;;;;;;;;4995771;28;20034;-87
2022/07/06 12:35:46;;;;;;;1.70;1.42;;;;;;;;;;4979276;28;20042;-87
2022/07/06 12:38:12;;;;;;;2.92;1.50;;;;;;;;;;4979380;28;20038;-86
2022/07/06 12:40:38;;;;;;;3.63;1.40;;;;;;;;;;4979382;28;20023;-87
2022/07/06 12:43:05;;;;;;;1.98;1.38;;;;;;;;;;4995891;28;20026;-87
2022/07/06 12:45:31;;;;;;;2.75;1.50;;;;;;;;;;4979341;28;20089;-87
2022/07/06 12:47:58;;;;;;;3.55;1.50;;;;;;;;;;4979015;28;20403;-87
2022/07/06 12:50:34;;;;;;;2.03;1.50;;;;;;;;;;4982317;28;20058;-87
2022/07/06 12:53:00;;;;;;;2.72;1.40;;;;;;;;;;4983463;28;20106;-87
2022/07/06 12:55:28;;;;;;;3.47;1.60;;;;;;;;;;4998248;28;20034;-87
2022/07/06 12:57:54;;;;;;;4.13;1.48;;;;;;;;;;5000761;28;20026;-87
2022/07/06 13:00:21;;;;;;;2.28;1.60;;;;;;;;;;4999406;28;20046;-87
2022/07/06 13:02:56;;;;;;;3.63;1.50;;;;;;;;;;5000513;28;20078;-86
2022/07/06 13:05:27;;;;;;;1.65;1.30;;;;;;;;;;4983632;28;20073;-87
2022/07/06 13:07:54;;;;;;;4.57;1.48;;;;;;;;;;4983192;28;20069;-87
2022/07/06 13:10:20;;;;;;;4.78;1.50;;;;;;;;;;4999292;28;20038;-88
2022/07/06 13:12:46;;;;;;;4.18;1.40;;;;;;;;;;4998444;28;20038;-87
2022/07/06 13:15:12;;;;;;;2.00;1.30;;;;;;;;;;4998429;28;20037;-87
2022/07/06 13:17:38;;;;;;;4.93;1.50;;;;;;;;;;4982753;28;20034;-86
2022/07/06 13:20:08;;;;;;;2.58;1.50;;;;;;;;;;4982522;28;20057;-88
2022/07/06 13:22:34;;;;;;;5.13;1.95;;;;;;;;;;4982619;28;20061;-86
2022/07/06 13:25:00;;;;;;;4.15;1.60;;;;;;;;;;4997901;28;20026;-87
2022/07/06 13:27:25;;;;;;;2.10;1.60;;;;;;;;;;4982399;28;20030;-87
2022/07/06 13:29:51;;;;;;;2.65;1.60;;;;;;;;;;4998920;28;20042;-87
2022/07/06 13:32:17;;;;;;;3.70;1.73;;;;;;;;;;4999013;28;20088;-87
2022/07/06 13:34:42;;;;;;;1.92;1.58;;;;;;;;;;4997963;28;20033;-87
2022/07/06 13:37:08;;;;;;;3.55;1.70;;;;;;;;;;4998925;28;20026;-87
2022/07/06 13:39:34;;;;;;;2.42;1.50;;;;;;;;;;4998845;28;20023;-87
2022/07/06 13:41:59;;;;;;;4.15;1.70;;;;;;;;;;4982359;28;20061;-87
2022/07/06 13:44:25;;;;;;;4.18;1.60;;;;;;;;;;4998478;28;20519;-87
2022/07/06 13:46:51;;;;;;;2.22;1.52;;;;;;;;;;4998927;28;20034;-87
2022/07/06 13:49:17;;;;;;;2.85;1.50;;;;;;;;;;5001783;28;20054;-87
2022/07/06 13:51:43;;;;;;;3.20;1.58;;;;;;;;;;5000029;28;20041;-87
2022/07/06 13:54:09;;;;;;;5.22;1.67;;;;;;;;;;4998121;28;20117;-87
2022/07/06 13:56:36;;;;;;;6.97;1.55;;;;;;;;;;4998569;28;20507;-87
2022/07/06 13:59:02;;;;;;;7.60;1.67;;;;;;;;;;4998471;28;20479;-87
2022/07/06 14:01:27;;;;;;;3.70;1.52;;;;;;;;;;4997868;28;20085;-86
2022/07/06 14:03:53;;;;;;;2.63;1.60;;;;;;;;;;4982010;28;20061;-87
2022/07/06 14:06:19;;;;;;;2.88;1.55;;;;;;;;;;4981632;28;20031;-86
2022/07/06 14:08:45;;;;;;;4.88;1.70;;;;;;;;;;4981522;28;20038;-87
2022/07/06 14:11:11;;;;;;;7.10;1.90;;;;;;;;;;4981692;28;20514;-88
2022/07/06 14:13:37;;;;;;;2.42;1.50;;;;;;;;;;4980776;28;20031;-87
2022/07/06 14:16:04;;;;;;;2.83;1.60;;;;;;;;;;4997655;28;20491;-87
2022/07/06 14:18:30;;;;;;;5.22;1.60;;;;;;;;;;4981613;28;20112;-87
2022/07/06 14:20:56;;;;;;;3.22;1.48;;;;;;;;;;4998158;28;20042;-87
2022/07/06 14:23:22;;;;;;;6.45;1.67;;;;;;;;;;4981628;28;20044;-87
2022/07/06 14:25:48;;;;;;;4.47;1.80;;;;;;;;;;4980706;28;20047;-87
2022/07/06 14:28:15;;;;;;;2.17;1.58;;;;;;;;;;4981548;28;20038;-87
2022/07/06 14:30:41;;;;;;;2.92;1.58;;;;;;;;;;4998701;28;20482;-88
2022/07/06 14:33:08;;;;;;;3.42;1.40;;;;;;;;;;4998469;28;20042;-87
2022/07/06 14:35:39;;;;;;;4.00;1.75;;;;;;;;;;4981805;28;20026;-87
2022/07/06 14:38:05;;;;;;;2.30;1.40;;;;;;;;;;4999162;28;20524;-87
2022/07/06 14:40:32;;;;;;;2.88;1.60;;;;;;;;;;4982315;28;20390;-87
2022/07/06 14:42:58;;;;;;;4.40;1.50;;;;;;;;;;4998357;28;20046;-87
2022/07/06 14:45:24;;;;;;;5.40;1.52;;;;;;;;;;4985325;28;20065;-87